Time;durP1;ratioP1;P1;durP2;ratioP2;P2;SDS_P1;SDS_P2;PMS_P1;PMS_P2;Temp;Humidity;BMP_temperature;BMP_pressure;BME280_temperature;BME280_humidity;BME280_pressure;Samples;Min_cycle;Max_cycle;Signal;HPM_P1;HPM_P2
2022/09/18 00:01:44;;;;;;;7.78;0.95;;;11.50;99.90;;;;;;5052436;28;20021;-73
2022/09/18 00:04:15;;;;;;;8.52;0.73;;;11.60;99.90;;;;;;5052184;28;20414;-73
2022/09/18 00:06:42;;;;;;;5.60;1.00;;;11.50;99.90;;;;;;5052222;28;20032;-73
2022/09/18 00:09:11;;;;;;;4.10;0.88;;;11.50;99.90;;;;;;5052069;28;20498;-73
2022/09/18 00:11:40;;;;;;;5.95;0.90;;;11.40;99.90;;;;;;5051218;28;20040;-73
2022/09/18 00:14:07;;;;;;;5.47;0.73;;;11.40;99.90;;;;;;5047956;28;20071;-73
2022/09/18 00:16:33;;;;;;;7.25;0.68;;;11.50;99.90;;;;;;5031806;28;20033;-73
2022/09/18 00:18:59;;;;;;;8.18;0.90;;;11.50;99.90;;;;;;5032089;28;20044;-73
2022/09/18 00:21:24;;;;;;;9.48;0.70;;;11.60;99.90;;;;;;5032050;28;20025;-73
2022/09/18 00:23:53;;;;;;;5.97;0.68;;;11.60;99.90;;;;;;5032096;28;20031;-73
2022/09/18 00:26:19;;;;;;;3.40;0.50;;;11.60;99.90;;;;;;5034099;28;20030;-73
2022/09/18 00:28:45;;;;;;;4.55;0.50;;;11.60;99.90;;;;;;5051774;28;20357;-73
2022/09/18 00:31:14;;;;;;;4.90;0.57;;;11.60;99.90;;;;;;5051701;28;20028;-73
2022/09/18 00:33:40;;;;;;;2.47;0.40;;;11.70;99.90;;;;;;5052015;28;20021;-73
2022/09/18 00:36:08;;;;;;;2.85;0.40;;;11.70;99.90;;;;;;5051532;28;20057;-73
2022/09/18 00:38:34;;;;;;;5.22;0.60;;;11.60;99.90;;;;;;5051644;28;20521;-73
2022/09/18 00:41:01;;;;;;;8.13;0.70;;;11.60;99.90;;;;;;5051559;28;20032;-73
2022/09/18 00:43:31;;;;;;;4.82;1.27;;;11.60;99.90;;;;;;5051862;28;20442;-73
2022/09/18 00:46:24;;;;;;;4.82;0.60;;;11.60;99.90;;;;;;5046307;28;20135;-73
2022/09/18 00:49:10;;;;;;;5.88;1.17;;;11.60;99.90;;;;;;5023779;28;20504;-73
2022/09/18 00:51:37;;;;;;;5.45;0.80;;;11.60;99.90;;;;;;5031577;28;20112;-73
2022/09/18 00:54:28;;;;;;;3.67;0.65;;;11.60;99.90;;;;;;5031289;28;20032;-74
2022/09/18 00:56:59;;;;;;;3.45;0.50;;;11.20;99.90;;;;;;5031515;28;20456;-74
2022/09/18 00:59:31;;;;;;;3.90;0.57;;;10.90;99.90;;;;;;5031726;28;20547;-74
2022/09/18 01:01:57;;;;;;;2.97;0.50;;;10.90;99.90;;;;;;5031280;28;20151;-74
2022/09/18 01:04:24;;;;;;;3.15;0.50;;;10.80;99.90;;;;;;5031469;28;20629;-74
2022/09/18 01:07:04;;;;;;;4.93;0.32;;;10.70;99.90;;;;;;5031476;28;20037;-74
2022/09/18 01:09:41;;;;;;;0.85;0.30;;;10.70;99.90;;;;;;5023733;28;20084;-74
2022/09/18 01:12:14;;;;;;;0.50;0.28;;;10.60;99.90;;;;;;5011794;28;20026;-74
2022/09/18 01:15:11;;;;;;;3.38;0.40;;;10.70;99.90;;;;;;5011506;28;20041;-74
2022/09/18 01:18:20;;;;;;;1.95;0.40;;;10.60;99.90;;;;;;5011563;28;20041;-74
2022/09/18 01:20:55;;;;;;;7.18;0.60;;;10.60;99.90;;;;;;5022515;28;20041;-74
2022/09/18 01:23:26;;;;;;;4.03;0.55;;;10.60;99.90;;;;;;5033288;28;20116;-74
2022/09/18 01:26:01;;;;;;;3.60;0.82;;;10.60;99.90;;;;;;5035421;28;20037;-74
2022/09/18 01:28:49;;;;;;;5.82;0.60;;;10.60;99.90;;;;;;5035314;28;20013;-73
2022/09/18 01:31:36;;;;;;;11.50;1.25;;;10.70;99.90;;;;;;5035318;28;20030;-74
2022/09/18 01:34:31;;;;;;;3.40;0.73;;;10.70;99.90;;;;;;5035065;28;20443;-74
2022/09/18 01:37:10;;;;;;;4.15;0.70;;;10.80;99.90;;;;;;5034538;28;20369;-73
2022/09/18 01:40:03;;;;;;;5.72;0.60;;;10.80;99.90;;;;;;5034904;28;20478;-74
2022/09/18 01:42:31;;;;;;;6.72;0.68;;;10.80;99.90;;;;;;5034968;28;20025;-74
2022/09/18 01:45:01;;;;;;;5.13;0.80;;;10.80;99.90;;;;;;5035128;28;20017;-74
2022/09/18 01:47:31;;;;;;;4.40;0.73;;;10.70;99.90;;;;;;5034916;28;20026;-74
2022/09/18 01:49:59;;;;;;;5.43;0.80;;;10.70;99.90;;;;;;5035066;28;20034;-74
2022/09/18 01:52:50;;;;;;;13.20;1.20;;;10.70;99.90;;;;;;5035099;28;20022;-74
2022/09/18 01:55:21;;;;;;;4.90;0.60;;;10.70;99.90;;;;;;5020835;28;20048;-73
2022/09/18 01:58:18;;;;;;;6.22;1.13;;;10.70;99.90;;;;;;5015167;28;20091;-74
2022/09/18 02:00:53;;;;;;;7.32;0.73;;;10.70;99.90;;;;;;5014558;28;20436;-74
2022/09/18 02:03:37;;;;;;;6.57;0.70;;;10.70;99.90;;;;;;5014920;28;20018;-74
2022/09/18 02:06:09;;;;;;;3.22;0.60;;;10.70;99.90;;;;;;5015168;28;20105;-74
2022/09/18 02:08:39;;;;;;;5.40;0.80;;;10.80;99.90;;;;;;5014774;28;20018;-74
2022/09/18 02:11:10;;;;;;;4.55;0.70;;;10.90;99.90;;;;;;5014802;28;20024;-74
2022/09/18 02:14:01;;;;;;;4.93;0.82;;;11.00;99.90;;;;;;5014922;28;20022;-73
2022/09/18 02:16:35;;;;;;;2.58;0.40;;;11.10;99.90;;;;;;5014426;28;20242;-73
2022/09/18 02:19:17;;;;;;;8.80;0.52;;;11.20;99.90;;;;;;5014690;28;20041;-74
2022/09/18 02:21:46;;;;;;;3.10;0.38;;;11.30;99.90;;;;;;5014585;28;20022;-74
2022/09/18 02:24:16;;;;;;;1.30;0.32;;;11.30;99.90;;;;;;5014617;28;20477;-74
2022/09/18 02:26:45;;;;;;;3.70;0.40;;;11.30;99.90;;;;;;5014542;28;20117;-74
2022/09/18 02:29:13;;;;;;;2.40;0.40;;;11.20;99.90;;;;;;5014423;28;20018;-74
2022/09/18 02:31:39;;;;;;;6.10;0.68;;;11.10;99.90;;;;;;5014296;28;20362;-74
2022/09/18 02:34:09;;;;;;;2.95;0.40;;;11.10;99.90;;;;;;5013312;28;20076;-74
2022/09/18 02:37:01;;;;;;;4.55;0.68;;;11.00;99.90;;;;;;5013897;28;20592;-74
2022/09/18 02:39:48;;;;;;;3.85;0.55;;;11.00;99.90;;;;;;5014329;28;20053;-74
2022/09/18 02:42:19;;;;;;;4.38;0.40;;;11.00;99.90;;;;;;5014213;28;20029;-74
2022/09/18 02:45:23;;;;;;;4.45;0.40;;;11.10;99.90;;;;;;5013964;28;20018;-74
2022/09/18 02:48:26;;;;;;;1.92;0.22;;;11.10;99.90;;;;;;5013962;28;20101;-74
2022/09/18 02:51:07;;;;;;;2.85;0.40;;;11.20;99.90;;;;;;5014138;28;20105;-74
2022/09/18 02:53:54;;;;;;;2.78;0.50;;;11.20;99.90;;;;;;5013838;28;20514;-74
2022/09/18 02:56:47;;;;;;;3.83;0.60;;;11.20;99.90;;;;;;5033563;28;20039;-73
2022/09/18 02:59:25;;;;;;;5.65;0.80;;;11.20;99.90;;;;;;5033309;28;20029;-74
2022/09/18 03:01:52;;;;;;;6.13;0.35;;;11.20;99.90;;;;;;5033828;28;20029;-74
2022/09/18 03:04:22;;;;;;;7.40;0.73;;;11.10;99.90;;;;;;5033556;28;20033;-74
2022/09/18 03:06:48;;;;;;;6.30;0.47;;;11.10;99.90;;;;;;5033444;28;20025;-74
2022/09/18 03:09:15;;;;;;;5.75;0.40;;;11.10;99.90;;;;;;5033384;28;20505;-73
2022/09/18 03:11:41;;;;;;;7.30;1.73;;;11.10;99.90;;;;;;5017643;28;20044;-74
2022/09/18 03:14:07;;;;;;;3.10;0.32;;;11.00;99.90;;;;;;5013610;28;20022;-74
2022/09/18 03:16:32;;;;;;;6.85;0.60;;;11.10;99.90;;;;;;5013569;28;20084;-74
2022/09/18 03:18:58;;;;;;;5.57;0.40;;;11.10;99.90;;;;;;5013434;28;20499;-73
2022/09/18 03:21:24;;;;;;;6.93;0.60;;;11.10;99.90;;;;;;5013234;28;20014;-74
2022/09/18 03:23:51;;;;;;;6.55;0.80;;;11.20;99.90;;;;;;5013147;28;20099;-74
2022/09/18 03:26:17;;;;;;;5.32;0.47;;;11.20;99.90;;;;;;5013166;28;20093;-74
2022/09/18 03:28:43;;;;;;;3.97;0.47;;;11.30;99.90;;;;;;5013347;28;20022;-74
2022/09/18 03:31:12;;;;;;;5.32;0.85;;;11.30;99.90;;;;;;5013275;28;20018;-74
2022/09/18 03:33:37;;;;;;;3.85;0.50;;;11.20;99.90;;;;;;5013017;28;20022;-74
2022/09/18 03:36:04;;;;;;;1.45;0.52;;;11.20;99.90;;;;;;5012756;28;20399;-74
2022/09/18 03:38:31;;;;;;;2.67;0.40;;;11.20;99.90;;;;;;5013158;28;20112;-74
2022/09/18 03:40:56;;;;;;;3.50;0.40;;;11.10;99.90;;;;;;5013078;28;20029;-74
2022/09/18 03:43:22;;;;;;;3.22;0.32;;;11.00;99.90;;;;;;5013167;28;20029;-74
2022/09/18 03:45:48;;;;;;;3.67;0.55;;;10.90;99.90;;;;;;5012816;28;20022;-74
2022/09/18 03:48:14;;;;;;;3.45;0.47;;;11.00;99.90;;;;;;5012843;28;20029;-74
2022/09/18 03:50:39;;;;;;;2.95;0.30;;;10.70;99.90;;;;;;5012809;28;20108;-74
2022/09/18 03:53:07;;;;;;;3.22;0.30;;;10.70;99.90;;;;;;5012732;28;20026;-74
2022/09/18 03:55:33;;;;;;;0.47;0.10;;;10.60;99.90;;;;;;5029314;28;20025;-74
2022/09/18 03:57:59;;;;;;;2.67;0.10;;;10.60;99.90;;;;;;5032475;28;20018;-73
2022/09/18 04:00:24;;;;;;;4.95;0.63;;;10.50;99.90;;;;;;5032634;28;20104;-74
2022/09/18 04:02:50;;;;;;;1.23;0.20;;;10.60;99.90;;;;;;5032398;28;20018;-73
2022/09/18 04:05:16;;;;;;;4.70;0.50;;;10.60;99.90;;;;;;5032422;28;20101;-74
2022/09/18 04:07:41;;;;;;;1.35;0.20;;;10.60;99.90;;;;;;5032202;28;20028;-74
2022/09/18 04:10:07;;;;;;;3.15;0.20;;;10.70;99.90;;;;;;5032357;28;20018;-74
2022/09/18 04:12:33;;;;;;;5.20;1.10;;;10.70;99.90;;;;;;5032425;28;20104;-74
2022/09/18 04:14:59;;;;;;;7.07;1.23;;;10.80;99.90;;;;;;5032223;28;20112;-73
2022/09/18 04:17:25;;;;;;;3.88;0.43;;;10.60;99.90;;;;;;5032146;28;20021;-73
2022/09/18 04:19:51;;;;;;;2.78;0.38;;;10.50;99.90;;;;;;5032085;28;20053;-73
2022/09/18 04:22:17;;;;;;;6.78;0.60;;;10.50;99.90;;;;;;5031995;28;20037;-73
2022/09/18 04:24:44;;;;;;;4.10;0.40;;;10.40;99.90;;;;;;5031990;28;20025;-73
2022/09/18 04:27:09;;;;;;;3.72;0.30;;;10.40;99.90;;;;;;5032246;28;20022;-74
2022/09/18 04:29:35;;;;;;;6.65;0.70;;;10.40;99.90;;;;;;5031669;28;20017;-74
2022/09/18 04:32:01;;;;;;;0.55;0.32;;;10.30;99.90;;;;;;5031929;28;20025;-74
2022/09/18 04:34:26;;;;;;;1.42;0.30;;;10.30;99.90;;;;;;5031804;28;20490;-74
2022/09/18 04:36:52;;;;;;;2.35;0.35;;;10.30;99.90;;;;;;5031551;28;20053;-74
2022/09/18 04:39:18;;;;;;;3.83;0.40;;;10.30;99.90;;;;;;5031861;28;20021;-74
2022/09/18 04:41:46;;;;;;;2.72;0.47;;;10.30;99.90;;;;;;5031685;28;20044;-74
2022/09/18 04:44:12;;;;;;;4.85;0.63;;;10.30;99.90;;;;;;5031722;28;20032;-74
2022/09/18 04:46:37;;;;;;;4.38;0.43;;;10.20;99.90;;;;;;5031695;28;20017;-74
2022/09/18 04:49:03;;;;;;;4.30;0.75;;;10.20;99.90;;;;;;5031660;28;20047;-74
2022/09/18 04:51:28;;;;;;;5.93;0.80;;;10.20;99.90;;;;;;5031535;28;20121;-74
2022/09/18 04:53:54;;;;;;;5.00;0.35;;;10.20;99.90;;;;;;5031617;28;20017;-74
2022/09/18 04:56:20;;;;;;;9.23;0.80;;;10.20;99.90;;;;;;5031511;28;20040;-74
2022/09/18 04:58:46;;;;;;;4.30;0.60;;;10.30;99.90;;;;;;5030875;28;20029;-74
2022/09/18 05:01:11;;;;;;;3.95;0.70;;;10.20;99.90;;;;;;5040608;28;20028;-74
2022/09/18 05:03:37;;;;;;;5.30;0.70;;;10.20;99.90;;;;;;5051482;28;20029;-73
2022/09/18 05:06:05;;;;;;;8.43;0.77;;;10.30;99.90;;;;;;5051043;28;20577;-74
2022/09/18 05:08:33;;;;;;;4.13;0.95;;;10.30;99.90;;;;;;5050741;28;20036;-73
2022/09/18 05:10:59;;;;;;;3.28;0.43;;;10.30;99.90;;;;;;5051185;28;20132;-74
2022/09/18 05:13:24;;;;;;;5.30;0.98;;;10.70;99.90;;;;;;5051044;28;20460;-73
2022/09/18 05:15:54;;;;;;;1.90;0.38;;;10.90;99.90;;;;;;5050455;28;20036;-73
2022/09/18 05:18:20;;;;;;;9.18;2.28;;;11.00;99.90;;;;;;5050784;28;20743;-73
2022/09/18 05:20:46;;;;;;;9.80;1.10;;;11.00;99.90;;;;;;5050928;28;20029;-74
2022/09/18 05:23:12;;;;;;;5.18;0.82;;;11.00;99.90;;;;;;5051221;28;20483;-74
2022/09/18 05:25:37;;;;;;;6.32;0.80;;;10.90;99.90;;;;;;5050994;28;20029;-74
2022/09/18 05:28:03;;;;;;;4.80;0.60;;;10.90;99.90;;;;;;5051107;28;20365;-74
2022/09/18 05:30:30;;;;;;;8.27;1.48;;;11.00;99.90;;;;;;5050779;28;20369;-74
2022/09/18 05:33:01;;;;;;;4.28;0.77;;;11.00;99.90;;;;;;5050369;28;20021;-74
2022/09/18 05:35:28;;;;;;;4.88;0.60;;;10.90;99.90;;;;;;5050248;28;20068;-73
2022/09/18 05:37:55;;;;;;;3.33;0.63;;;10.90;99.90;;;;;;5032056;28;20028;-74
2022/09/18 05:40:24;;;;;;;6.30;0.77;;;11.00;99.90;;;;;;5030679;28;20029;-73
2022/09/18 05:42:54;;;;;;;11.30;0.88;;;11.00;99.90;;;;;;5011475;28;20022;-73
2022/09/18 05:45:20;;;;;;;7.15;0.50;;;11.00;99.90;;;;;;5024153;28;20057;-74
2022/09/18 05:47:54;;;;;;;2.03;0.50;;;11.00;99.90;;;;;;5030770;28;20026;-74
2022/09/18 05:50:21;;;;;;;2.15;0.35;;;11.00;99.90;;;;;;5030991;28;20163;-73
2022/09/18 05:52:47;;;;;;;5.97;0.80;;;11.00;99.90;;;;;;5030829;28;20018;-73
2022/09/18 05:55:12;;;;;;;4.50;0.63;;;11.00;99.90;;;;;;5030951;28;20026;-73
2022/09/18 05:57:38;;;;;;;5.75;0.63;;;11.00;99.90;;;;;;5031171;28;20368;-74
2022/09/18 06:00:04;;;;;;;4.10;0.50;;;11.00;99.90;;;;;;5030778;28;20021;-73
2022/09/18 06:02:30;;;;;;;3.83;0.52;;;11.00;99.90;;;;;;5031262;28;20018;-74
2022/09/18 06:04:55;;;;;;;5.72;0.43;;;11.10;99.90;;;;;;5031026;28;20025;-74
2022/09/18 06:07:21;;;;;;;7.72;0.70;;;11.20;99.90;;;;;;5030998;28;20084;-73
2022/09/18 06:09:46;;;;;;;4.20;0.50;;;11.20;99.90;;;;;;5033410;28;20044;-74
2022/09/18 06:12:12;;;;;;;1.73;0.20;;;11.30;99.90;;;;;;5034501;28;20022;-74
2022/09/18 06:14:38;;;;;;;0.28;0.10;;;11.30;99.90;;;;;;5034404;28;20488;-74
2022/09/18 06:17:03;;;;;;;2.22;0.38;;;11.30;99.90;;;;;;5034460;28;20064;-74
2022/09/18 06:19:29;;;;;;;3.30;0.40;;;11.30;99.90;;;;;;5034558;28;20052;-74
2022/09/18 06:21:54;;;;;;;3.22;0.30;;;11.20;99.90;;;;;;5034235;28;20026;-74
2022/09/18 06:24:20;;;;;;;1.98;0.40;;;11.10;99.90;;;;;;5034329;28;20030;-74
2022/09/18 06:26:48;;;;;;;1.55;0.40;;;11.00;99.90;;;;;;5034275;28;20025;-74
2022/09/18 06:29:13;;;;;;;3.45;0.30;;;10.80;99.90;;;;;;5034188;28;20028;-74
2022/09/18 06:31:39;;;;;;;3.05;0.35;;;10.80;99.90;;;;;;5033803;28;20025;-74
2022/09/18 06:34:04;;;;;;;1.45;0.47;;;10.80;99.90;;;;;;5034085;28;20048;-74
2022/09/18 06:36:30;;;;;;;1.33;0.30;;;10.80;99.90;;;;;;5033416;28;20093;-73
2022/09/18 06:38:55;;;;;;;2.40;0.30;;;10.80;99.90;;;;;;5013922;28;20030;-74
2022/09/18 06:41:23;;;;;;;6.15;1.08;;;10.80;99.90;;;;;;5013809;28;20029;-74
2022/09/18 06:43:51;;;;;;;1.95;0.68;;;10.70;99.90;;;;;;5013876;28;20029;-74
2022/09/18 06:46:17;;;;;;;4.88;0.95;;;10.60;99.90;;;;;;5026292;28;20032;-74
2022/09/18 06:48:43;;;;;;;2.50;0.40;;;10.60;99.90;;;;;;5053583;28;20066;-74
2022/09/18 06:51:08;;;;;;;4.30;0.50;;;10.60;99.90;;;;;;5053387;28;20026;-74
2022/09/18 06:53:34;;;;;;;1.10;0.30;;;10.70;99.90;;;;;;5053180;28;20040;-73
2022/09/18 06:56:02;;;;;;;3.03;0.63;;;10.60;99.90;;;;;;5033176;28;20065;-73
2022/09/18 06:58:27;;;;;;;2.20;0.30;;;10.50;99.90;;;;;;5033855;28;20029;-73
2022/09/18 07:00:53;;;;;;;4.57;0.50;;;10.60;99.90;;;;;;5033282;28;20364;-73
2022/09/18 07:03:19;;;;;;;4.40;0.40;;;10.50;99.90;;;;;;5033511;28;20021;-73
2022/09/18 07:05:44;;;;;;;1.25;0.30;;;10.50;99.90;;;;;;5033124;28;20098;-73
2022/09/18 07:08:11;;;;;;;8.85;0.60;;;10.60;99.90;;;;;;5033475;28;20113;-73
2022/09/18 07:10:37;;;;;;;1.42;0.20;;;10.50;99.90;;;;;;5033436;28;20712;-73
2022/09/18 07:13:03;;;;;;;2.75;0.40;;;10.30;99.90;;;;;;5033201;28;20018;-73
2022/09/18 07:15:29;;;;;;;4.40;0.43;;;10.30;99.90;;;;;;5033194;28;20023;-73
2022/09/18 07:17:56;;;;;;;2.90;0.63;;;10.40;99.90;;;;;;5032969;28;20022;-73
2022/09/18 07:20:21;;;;;;;2.83;0.50;;;10.50;99.90;;;;;;5025264;28;20022;-74
2022/09/18 07:22:58;;;;;;;4.88;1.38;;;10.60;99.90;;;;;;5012879;28;20025;-73
2022/09/18 07:25:26;;;;;;;5.45;0.57;;;10.70;99.90;;;;;;5012982;28;20076;-74
2022/09/18 07:27:51;;;;;;;5.50;0.60;;;10.80;99.90;;;;;;5013103;28;20484;-73
2022/09/18 07:30:18;;;;;;;10.82;2.03;;;10.90;99.90;;;;;;5021312;28;20093;-74
2022/09/18 07:32:43;;;;;;;5.50;0.88;;;11.00;99.90;;;;;;5032800;28;20092;-73
2022/09/18 07:35:09;;;;;;;6.22;0.82;;;11.10;99.90;;;;;;5032241;28;20128;-74
2022/09/18 07:37:36;;;;;;;10.50;1.38;;;11.20;99.90;;;;;;5032870;28;20030;-74
2022/09/18 07:40:02;;;;;;;6.18;1.30;;;11.30;99.90;;;;;;5032691;28;20029;-73
2022/09/18 07:42:27;;;;;;;6.60;0.55;;;11.30;99.90;;;;;;5032341;28;20076;-74
2022/09/18 07:44:53;;;;;;;11.05;0.85;;;11.40;99.90;;;;;;5032682;28;20065;-74
2022/09/18 07:47:19;;;;;;;4.43;0.63;;;11.40;99.90;;;;;;5032667;28;20029;-74
2022/09/18 07:49:44;;;;;;;5.45;0.70;;;11.50;99.90;;;;;;5032610;28;20037;-74
2022/09/18 07:52:10;;;;;;;7.38;0.65;;;11.60;99.90;;;;;;5047992;28;20086;-74
2022/09/18 07:54:36;;;;;;;6.50;1.38;;;11.70;99.90;;;;;;5043937;28;20030;-74
2022/09/18 07:57:02;;;;;;;6.72;1.35;;;11.80;99.90;;;;;;5032275;28;20024;-74
2022/09/18 07:59:27;;;;;;;6.28;1.08;;;12.00;99.90;;;;;;5032383;28;20053;-74
2022/09/18 08:01:54;;;;;;;4.50;0.80;;;11.80;99.90;;;;;;5032303;28;20056;-74
2022/09/18 08:04:21;;;;;;;5.25;1.20;;;11.80;99.90;;;;;;5032471;28;20053;-74
2022/09/18 08:06:53;;;;;;;7.22;1.00;;;11.70;99.90;;;;;;5024908;28;20030;-73
2022/09/18 08:09:20;;;;;;;6.85;1.23;;;11.70;99.90;;;;;;5012849;28;20025;-74
2022/09/18 08:11:49;;;;;;;6.50;0.68;;;11.70;99.90;;;;;;5012248;28;20026;-74
2022/09/18 08:14:15;;;;;;;5.25;0.55;;;11.80;99.90;;;;;;5012680;28;20036;-74
2022/09/18 08:16:41;;;;;;;1.65;0.70;;;11.80;99.90;;;;;;5012312;28;20022;-73
2022/09/18 08:19:07;;;;;;;1.77;0.17;;;11.80;99.90;;;;;;5012558;28;20091;-74
2022/09/18 08:21:32;;;;;;;2.00;0.38;;;11.80;99.90;;;;;;5012285;28;20448;-74
2022/09/18 08:23:58;;;;;;;1.00;0.13;;;11.90;99.90;;;;;;5012157;28;20072;-74
2022/09/18 08:26:24;;;;;;;1.88;0.30;;;12.00;99.90;;;;;;5012457;28;20026;-74
2022/09/18 08:28:49;;;;;;;2.38;0.20;;;12.10;99.90;;;;;;5012255;28;20484;-74
2022/09/18 08:31:15;;;;;;;2.72;0.60;;;12.30;99.90;;;;;;5012286;28;20021;-74
2022/09/18 08:33:40;;;;;;;5.28;0.50;;;12.20;99.90;;;;;;5011267;28;20029;-74
2022/09/18 08:36:06;;;;;;;4.53;0.50;;;12.20;99.90;;;;;;5011874;28;20058;-74
2022/09/18 08:38:33;;;;;;;4.22;0.32;;;12.30;99.90;;;;;;5012121;28;20018;-74
2022/09/18 08:41:14;;;;;;;5.10;0.68;;;12.40;99.90;;;;;;5012174;28;20349;-74
2022/09/18 08:44:06;;;;;;;4.93;0.43;;;12.30;99.90;;;;;;5012106;28;20125;-74
2022/09/18 08:46:37;;;;;;;3.92;0.43;;;12.50;99.90;;;;;;5012177;28;20043;-74
2022/09/18 08:49:18;;;;;;;5.60;0.32;;;12.60;99.90;;;;;;5012001;28;20018;-75
2022/09/18 08:51:52;;;;;;;;;;;12.70;99.90;;;;;;5012444;28;20029;-74
2022/09/18 08:54:38;;;;;;;2.25;0.43;;;12.70;99.90;;;;;;5017744;28;20348;-74
2022/09/18 08:57:13;;;;;;;3.15;0.82;;;12.70;99.90;;;;;;5031388;28;20025;-74
2022/09/18 08:59:44;;;;;;;5.07;0.43;;;12.60;99.90;;;;;;5031371;28;20029;-74
2022/09/18 09:02:33;;;;;;;2.80;0.20;;;12.70;99.90;;;;;;5031840;28;20021;-74
2022/09/18 09:05:05;;;;;;;4.55;0.50;;;12.90;99.90;;;;;;5031543;28;20465;-74
2022/09/18 09:07:38;;;;;;;2.78;0.25;;;13.20;99.90;;;;;;5031661;28;20072;-74
2022/09/18 09:10:25;;;;;;;1.67;0.50;;;13.20;99.90;;;;;;5028778;28;20045;-74
2022/09/18 09:13:08;;;;;;;2.92;0.57;;;13.20;99.90;;;;;;5011814;28;20037;-74
2022/09/18 09:15:57;;;;;;;1.42;0.30;;;13.20;99.90;;;;;;5011850;28;20048;-74
2022/09/18 09:18:31;;;;;;;2.97;0.40;;;13.10;99.90;;;;;;5019286;28;20426;-74
2022/09/18 09:21:06;;;;;;;2.55;0.40;;;12.70;99.90;;;;;;5052053;28;20021;-74
2022/09/18 09:24:24;;;;;;;3.13;0.50;;;12.50;99.90;;;;;;5051949;28;20040;-73
2022/09/18 09:26:52;;;;;;;6.70;0.45;;;12.50;99.90;;;;;;5012608;28;20436;-74
2022/09/18 09:29:32;;;;;;;4.00;0.45;;;12.50;99.90;;;;;;5031989;28;20076;-74
2022/09/18 09:32:22;;;;;;;4.13;0.47;;;12.60;99.90;;;;;;5032098;28;20491;-74
2022/09/18 09:34:57;;;;;;;4.28;0.40;;;12.60;99.90;;;;;;5012202;28;20049;-74
2022/09/18 09:37:34;;;;;;;3.42;0.77;;;12.70;99.90;;;;;;5028657;28;20053;-75
2022/09/18 09:40:10;;;;;;;3.38;0.40;;;12.80;99.90;;;;;;5019848;28;20025;-74
2022/09/18 09:43:06;;;;;;;5.50;0.57;;;12.70;99.90;;;;;;5012355;28;20063;-74
2022/09/18 09:45:49;;;;;;;2.30;0.45;;;12.80;99.90;;;;;;5016052;28;20364;-75
2022/09/18 09:48:36;;;;;;;5.35;0.52;;;12.70;99.90;;;;;;5029290;28;20018;-74
2022/09/18 09:51:18;;;;;;;7.35;0.60;;;12.70;99.90;;;;;;5035762;28;20476;-74
2022/09/18 09:53:44;;;;;;;5.50;0.50;;;12.90;99.90;;;;;;5037096;28;20109;-74
2022/09/18 09:56:21;;;;;;;5.80;0.50;;;12.90;99.90;;;;;;5041944;28;20104;-74
2022/09/18 09:58:58;;;;;;;2.08;0.90;;;12.70;99.90;;;;;;5015974;28;20467;-74
2022/09/18 10:01:47;;;;;;;5.60;0.80;;;12.50;99.90;;;;;;5021414;28;20438;-74
2022/09/18 10:04:31;;;;;;;5.43;0.63;;;12.50;99.90;;;;;;5027865;28;20022;-74
2022/09/18 10:07:24;;;;;;;3.45;0.90;;;12.50;99.90;;;;;;5035076;28;20049;-74
2022/09/18 10:10:13;;;;;;;4.03;0.70;;;12.80;99.90;;;;;;5014657;28;20053;-74
2022/09/18 10:12:53;;;;;;;3.30;0.75;;;12.80;99.90;;;;;;5034631;28;20047;-74
2022/09/18 10:15:38;;;;;;;;;;;12.80;99.90;;;;;;5034791;28;20028;-74
2022/09/18 10:18:11;;;;;;;4.35;0.70;;;12.70;99.90;;;;;;5034451;28;20551;-74
2022/09/18 10:20:36;;;;;;;8.15;1.00;;;12.60;99.90;;;;;;5034663;28;20025;-74
2022/09/18 10:23:19;;;;;;;6.95;1.00;;;12.70;99.90;;;;;;5034141;28;20017;-74
2022/09/18 10:25:50;;;;;;;6.40;0.90;;;12.90;99.90;;;;;;5034242;28;20026;-74
2022/09/18 10:28:15;;;;;;;4.32;0.80;;;13.10;99.90;;;;;;5034247;28;20155;-74
2022/09/18 10:31:11;;;;;;;10.02;0.93;;;13.40;99.90;;;;;;5033980;28;20148;-74
2022/09/18 10:33:38;;;;;;;13.35;1.73;;;13.70;99.90;;;;;;5033716;28;20495;-74
2022/09/18 10:36:34;;;;;;;5.90;1.17;;;13.80;99.90;;;;;;5033688;28;20468;-74
2022/09/18 10:39:14;;;;;;;9.02;2.70;;;13.90;99.90;;;;;;5033153;28;20487;-75
2022/09/18 10:41:41;;;;;;;6.18;2.58;;;13.90;99.90;;;;;;5014063;28;20030;-74
2022/09/18 10:44:13;;;;;;;6.07;1.30;;;13.90;99.90;;;;;;5014366;28;20026;-73
2022/09/18 10:46:49;;;;;;;8.05;3.42;;;14.00;99.90;;;;;;5042868;28;20021;-74
2022/09/18 10:49:30;;;;;;;5.10;2.17;;;14.00;99.90;;;;;;5014931;28;20034;-74
2022/09/18 10:52:20;;;;;;;6.22;1.85;;;14.00;99.90;;;;;;5014856;28;20038;-73
2022/09/18 10:55:11;;;;;;;15.57;2.42;;;14.00;99.90;;;;;;5024184;28;20022;-74
2022/09/18 10:57:47;;;;;;;7.72;1.75;;;13.90;89.90;;;;;;5034111;28;20034;-73
2022/09/18 11:00:18;;;;;;;5.07;1.10;;;14.00;83.20;;;;;;5025919;28;20026;-74
2022/09/18 11:02:54;;;;;;;2.58;0.50;;;13.80;65.30;;;;;;5023876;28;20022;-73
2022/09/18 11:05:45;;;;;;;1.60;0.50;;;13.90;75.50;;;;;;5015769;28;20108;-74
2022/09/18 11:08:18;;;;;;;4.80;0.43;;;14.00;66.20;;;;;;5026679;28;21681;-74
2022/09/18 11:10:56;;;;;;;5.20;0.75;;;14.10;64.40;;;;;;5027539;28;20096;-74
2022/09/18 11:13:25;;;;;;;3.05;1.00;;;14.30;63.40;;;;;;5034296;28;20033;-74
2022/09/18 11:15:56;;;;;;;3.37;1.33;;;14.40;69.80;;;;;;5031053;28;20045;-74
2022/09/18 11:18:22;;;;;;;;;;;14.60;56.60;;;;;;5017482;28;20026;-74
2022/09/18 11:20:49;;;;;;;8.18;1.17;;;14.50;64.90;;;;;;5024804;28;20617;-74
2022/09/18 11:23:17;;;;;;;2.97;1.33;;;14.60;35.90;;;;;;5023968;28;20025;-75
2022/09/18 11:25:46;;;;;;;3.70;0.80;;;14.80;43.40;;;;;;5047601;28;20063;-75
2022/09/18 11:28:30;;;;;;;7.10;0.90;;;14.80;34.20;;;;;;5024831;28;20744;-74
2022/09/18 11:31:02;;;;;;;5.68;0.60;;;14.80;45.50;;;;;;5018153;28;20083;-74
2022/09/18 11:33:36;;;;;;;8.32;2.78;;;14.70;35.60;;;;;;5033285;28;20033;-74
2022/09/18 11:36:05;;;;;;;6.32;1.17;;;14.90;44.70;;;;;;5027088;28;20551;-74
2022/09/18 11:38:37;;;;;;;10.32;0.85;;;14.70;34.70;;;;;;5021106;28;20354;-74
2022/09/18 11:41:03;;;;;;;4.05;0.57;;;14.60;27.60;;;;;;5040696;28;20490;-74
2022/09/18 11:43:34;;;;;;;5.82;0.50;;;14.60;24.50;;;;;;5044603;28;20025;-74
2022/09/18 11:46:18;;;;;;;3.33;0.45;;;14.40;31.00;;;;;;5033728;28;20021;-74
2022/09/18 11:49:01;;;;;;;3.47;1.02;;;14.30;48.80;;;;;;5030413;28;20035;-77
2022/09/18 11:51:43;;;;;;;2.28;0.70;;;14.00;49.30;;;;;;5013959;28;20488;-74
2022/09/18 11:54:28;;;;;;;9.90;1.35;;;13.90;67.30;;;;;;5029239;28;20066;-74
2022/09/18 11:56:58;;;;;;;6.25;0.90;;;13.90;84.00;;;;;;5052325;28;20548;-74
2022/09/18 11:59:36;;;;;;;5.15;0.40;;;13.90;85.00;;;;;;5033471;28;20026;-74
2022/09/18 12:02:31;;;;;;;6.07;0.77;;;13.80;83.10;;;;;;5033380;28;20041;-74
2022/09/18 12:05:21;;;;;;;5.35;0.70;;;13.90;88.90;;;;;;5033174;28;20025;-74
2022/09/18 12:07:57;;;;;;;4.20;1.02;;;13.90;94.60;;;;;;5025952;28;20029;-74
2022/09/18 12:10:41;;;;;;;4.57;0.85;;;13.90;76.90;;;;;;5049745;28;20030;-74
2022/09/18 12:13:31;;;;;;;5.68;0.85;;;13.80;64.90;;;;;;5018109;28;20113;-74
2022/09/18 12:16:14;;;;;;;4.40;0.93;;;14.00;61.10;;;;;;5024844;28;20052;-74
2022/09/18 12:18:52;;;;;;;6.00;0.60;;;14.00;61.80;;;;;;5013498;28;20091;-74
2022/09/18 12:21:25;;;;;;;8.82;0.93;;;14.10;76.50;;;;;;5013502;28;20037;-74
2022/09/18 12:23:51;;;;;;;6.13;0.88;;;14.20;82.50;;;;;;5022641;28;20025;-74
2022/09/18 12:26:30;;;;;;;5.18;0.80;;;14.40;89.10;;;;;;5035548;28;20025;-75
2022/09/18 12:29:12;;;;;;;2.53;0.70;;;14.40;92.10;;;;;;5052863;28;20024;-74
2022/09/18 12:32:01;;;;;;;4.25;0.68;;;14.30;66.70;;;;;;5019906;28;20025;-75
2022/09/18 12:34:42;;;;;;;7.35;2.13;;;14.00;89.30;;;;;;5032891;28;20033;-74
2022/09/18 12:37:21;;;;;;;3.92;1.35;;;14.00;90.40;;;;;;5032321;28;20048;-75
2022/09/18 12:40:16;;;;;;;8.52;1.40;;;13.70;64.80;;;;;;5027077;28;20104;-75
2022/09/18 12:43:24;;;;;;;8.00;1.17;;;13.50;77.70;;;;;;5032718;28;20116;-75
2022/09/18 12:46:08;;;;;;;4.78;1.65;;;13.40;98.00;;;;;;5032795;28;20027;-75
2022/09/18 12:48:53;;;;;;;10.45;1.40;;;13.30;97.40;;;;;;5032676;28;20021;-75
2022/09/18 12:51:38;;;;;;;6.93;1.88;;;13.30;99.90;;;;;;5013075;28;20435;-75
2022/09/18 12:54:23;;;;;;;14.15;2.67;;;13.30;99.90;;;;;;5017009;28;20028;-75
2022/09/18 12:57:22;;;;;;;10.48;1.67;;;13.20;99.90;;;;;;5032783;28;20475;-74
2022/09/18 13:00:08;;;;;;;5.88;0.90;;;13.30;99.90;;;;;;5012779;28;20026;-75
2022/09/18 13:02:51;;;;;;;5.65;1.15;;;13.20;99.90;;;;;;5013132;28;20456;-74
2022/09/18 13:05:36;;;;;;;5.82;1.30;;;13.30;99.90;;;;;;5029339;28;20521;-74
2022/09/18 13:08:13;;;;;;;6.57;1.50;;;13.30;99.90;;;;;;5032367;28;20029;-74
2022/09/18 13:10:42;;;;;;;5.95;1.50;;;13.30;99.90;;;;;;5032331;28;20064;-74
2022/09/18 13:13:18;;;;;;;6.93;0.98;;;13.30;99.90;;;;;;5032525;28;20479;-74
2022/09/18 13:16:07;;;;;;;10.52;0.80;;;13.30;97.40;;;;;;5032289;28;20030;-74
2022/09/18 13:18:36;;;;;;;2.95;0.60;;;13.40;96.50;;;;;;5038774;28;20104;-74